Time;durP1;ratioP1;P1;durP2;ratioP2;P2;SDS_P1;SDS_P2;PMS_P1;PMS_P2;Temp;Humidity;BMP_temperature;BMP_pressure;BME280_temperature;BME280_humidity;BME280_pressure;Samples;Min_cycle;Max_cycle;Signal;HPM_P1;HPM_P2
2020/12/12 00:00:55;;;;;;;33.50;16.60;;;;;;;;;;6245883;23;20060;-65
2020/12/12 00:03:21;;;;;;;31.52;15.93;;;;;;;;;;6245336;23;20004;-62
2020/12/12 00:05:47;;;;;;;36.03;16.77;;;;;;;;;;6218364;23;20083;-65
2020/12/12 00:08:13;;;;;;;32.85;16.20;;;;;;;;;;6245752;23;20000;-65
2020/12/12 00:10:40;;;;;;;28.42;14.32;;;;;;;;;;6245578;23;20007;-66
2020/12/12 00:13:09;;;;;;;31.95;14.52;;;;;;;;;;6218831;23;20008;-66
2020/12/12 00:15:35;;;;;;;26.55;14.52;;;9.50;67.80;;;;;;6218689;23;20130;-66
2020/12/12 00:18:02;;;;;;;25.83;13.80;;;;;;;;;;6218302;23;20032;-65
2020/12/12 00:20:28;;;;;;;31.92;15.50;;;;;;;;;;6245038;23;20452;-65
2020/12/12 00:22:54;;;;;;;29.48;14.48;;;;;;;;;;6245227;23;20008;-66
2020/12/12 00:25:21;;;;;;;25.55;14.45;;;;;;;;;;6245077;23;20369;-66
2020/12/12 00:27:47;;;;;;;31.02;14.50;;;;;;;;;;6245290;23;20061;-66
2020/12/12 00:30:13;;;;;;;25.85;14.05;;;;;;;;;;6245439;23;20008;-65
2020/12/12 00:32:40;;;;;;;34.05;13.90;;;;;;;;;;6245429;23;20012;-67
2020/12/12 00:35:06;;;;;;;22.60;11.77;;;;;;;;;;6245536;23;20070;-66
2020/12/12 00:37:32;;;;;;;23.73;12.88;;;;;;;;;;6218218;23;20070;-64
2020/12/12 00:39:58;;;;;;;24.80;11.75;;;;;;;;;;6245169;23;20034;-66
2020/12/12 00:42:25;;;;;;;23.33;12.98;;;;;;;;;;6244965;23;20040;-65
2020/12/12 00:44:52;;;;;;;24.70;12.60;;;;;;;;;;6217621;23;20385;-66
2020/12/12 00:47:18;;;;;;;25.05;12.95;;;;;;;;;;6193337;23;20017;-66
2020/12/12 00:49:45;;;;;;;25.08;12.68;;;;;;;;;;6217909;23;20008;-66
2020/12/12 00:52:12;;;;;;;26.60;13.60;;;;;;;;;;6245655;23;20012;-66
2020/12/12 00:54:38;;;;;;;25.45;13.15;;;;;;;;;;6218774;23;20011;-64
2020/12/12 00:57:05;;;;;;;27.55;13.27;;;;;;;;;;6193828;23;20087;-66
2020/12/12 00:59:32;;;;;;;26.15;13.93;;;;;;;;;;6223161;23;20016;-64
2020/12/12 01:01:58;;;;;;;28.95;15.05;;;;;;;;;;6245098;22;20026;-66
2020/12/12 01:04:24;;;;;;;25.65;13.38;;;;;;;;;;6244624;23;20012;-65
2020/12/12 01:06:50;;;;;;;26.15;13.57;;;;;;;;;;6244975;22;20014;-65
2020/12/12 01:09:17;;;;;;;25.67;12.05;;;;;;;;;;6243667;23;20004;-65
2020/12/12 01:11:43;;;;;;;33.38;13.63;;;;;;;;;;6244688;23;20015;-65
2020/12/12 01:14:09;;;;;;;24.95;12.75;;;;;;;;;;6244644;22;20499;-67
2020/12/12 01:16:35;;;;;;;29.17;13.52;;;;;;;;;;6243579;23;20033;-65
2020/12/12 01:19:02;;;;;;;24.08;12.55;;;;;;;;;;6244696;23;20123;-64
2020/12/12 01:21:28;;;;;;;22.52;11.70;;;;;;;;;;6245099;23;20031;-66
2020/12/12 01:23:54;;;;;;;26.00;12.43;;;;;;;;;;6244891;23;20015;-64
2020/12/12 01:26:20;;;;;;;27.23;12.90;;;;;;;;;;6244494;22;20015;-66
2020/12/12 01:28:47;;;;;;;21.27;11.15;;;;;;;;;;6244634;22;20000;-65
2020/12/12 01:31:13;;;;;;;28.45;13.40;;;9.40;68.50;;;;;;6244641;22;20081;-65
2020/12/12 01:33:40;;;;;;;21.23;12.15;;;9.50;68.70;;;;;;6244306;22;20004;-65
2020/12/12 01:36:06;;;;;;;;;;;9.50;69.20;;;;;;6245081;22;20380;-65
2020/12/12 01:38:34;;;;;;;26.23;12.27;;;9.30;68.70;;;;;;6244674;22;20236;-63
2020/12/12 01:41:00;;;;;;;24.52;12.70;;;;;;;;;;6244382;22;20008;-65
2020/12/12 01:43:27;;;;;;;24.33;12.93;;;;;;;;;;6243263;23;20019;-66
2020/12/12 01:45:53;;;;;;;27.20;12.82;;;;;;;;;;6244870;22;20000;-65
2020/12/12 01:48:19;;;;;;;24.45;12.38;;;;;;;;;;6244308;23;20015;-65
2020/12/12 01:50:46;;;;;;;24.85;11.95;;;;;;;;;;6242869;23;20495;-65
2020/12/12 01:53:13;;;;;;;26.90;12.65;;;9.50;68.90;;;;;;6244854;23;20015;-66
2020/12/12 01:55:45;;;;;;;29.33;13.80;;;9.80;68.70;;;;;;6243092;23;20009;-65
2020/12/12 01:58:12;;;;;;;25.02;12.95;;;9.60;68.90;;;;;;6244314;22;20341;-65
2020/12/12 02:00:39;;;;;;;28.02;12.35;;;;;;;;;;6244402;22;20027;-65
2020/12/12 02:03:11;;;;;;;27.52;13.18;;;9.90;68.40;;;;;;6217078;23;20456;-64
2020/12/12 02:05:44;;;;;;;30.10;13.30;;;;;;;;;;6244419;23;20011;-64
2020/12/12 02:08:13;;;;;;;30.40;13.57;;;10.00;67.30;;;;;;6244717;23;20095;-65
2020/12/12 02:10:42;;;;;;;25.30;12.18;;;10.20;66.60;;;;;;6217452;23;20004;-65
2020/12/12 02:13:09;;;;;;;25.75;12.93;;;;;;;;;;6244149;23;20062;-66
2020/12/12 02:15:35;;;;;;;29.45;13.30;;;;;;;;;;6244121;23;20051;-66
2020/12/12 02:18:03;;;;;;;29.25;13.85;;;10.20;66.40;;;;;;6244210;23;20047;-64
2020/12/12 02:20:29;;;;;;;30.85;13.70;;;;;;;;;;6244324;23;20011;-66
2020/12/12 02:22:56;;;;;;;26.30;13.30;;;;;;;;;;6217556;23;20012;-65
2020/12/12 02:25:22;;;;;;;25.77;12.85;;;;;;;;;;6244321;23;20126;-65
2020/12/12 02:27:55;;;;;;;27.13;13.75;;;;;;;;;;6243893;22;20004;-65
2020/12/12 02:30:21;;;;;;;30.58;13.73;;;;;;;;;;6243871;23;20459;-65
2020/12/12 02:32:49;;;;;;;27.83;13.65;;;;;;;;;;6244362;23;20083;-65
2020/12/12 02:35:16;;;;;;;23.80;12.60;;;;;;;;;;6244108;23;20040;-65
2020/12/12 02:37:42;;;;;;;27.63;13.00;;;;;;;;;;6244297;23;20019;-65
2020/12/12 02:40:08;;;;;;;26.13;13.02;;;;;;;;;;6244167;23;20087;-65
2020/12/12 02:42:34;;;;;;;25.83;12.27;;;;;;;;;;6243777;23;20004;-65
2020/12/12 02:45:01;;;;;;;26.05;13.38;;;;;;;;;;6243651;23;20510;-65
2020/12/12 02:47:27;;;;;;;23.80;12.82;;;;;;;;;;6244177;23;20008;-65
2020/12/12 02:50:07;;;;;;;23.77;12.45;;;10.30;66.40;;;;;;6243559;23;20004;-65
2020/12/12 02:52:33;;;;;;;24.38;11.85;;;;;;;;;;6244226;23;20010;-65
2020/12/12 02:55:01;;;;;;;22.77;10.90;;;;;;;;;;6217534;23;20016;-65
2020/12/12 02:57:29;;;;;;;28.52;12.77;;;;;;;;;;6243667;23;20042;-67
2020/12/12 02:59:55;;;;;;;24.60;11.90;;;;;;;;;;6243307;23;20087;-65
2020/12/12 03:02:21;;;;;;;20.42;11.20;;;;;;;;;;6243864;23;20092;-64
2020/12/12 03:04:47;;;;;;;21.75;11.98;;;;;;;;;;6243765;23;20000;-65
2020/12/12 03:07:14;;;;;;;24.33;11.07;;;;;;;;;;6243929;23;20008;-66
2020/12/12 03:09:40;;;;;;;23.50;11.32;;;;;;;;;;6243824;23;20365;-66
2020/12/12 03:12:06;;;;;;;25.80;11.25;;;;;;;;;;6243350;23;20019;-66
2020/12/12 03:14:33;;;;;;;28.15;11.75;;;;;;;;;;6243387;23;20467;-62
2020/12/12 03:16:59;;;;;;;24.17;11.77;;;;;;;;;;6243765;23;20102;-65
2020/12/12 03:19:25;;;;;;;22.95;12.02;;;;;;;;;;6243615;23;20039;-64
2020/12/12 03:21:51;;;;;;;22.92;12.75;;;;;;;;;;6243902;23;20008;-64
2020/12/12 03:24:18;;;;;;;22.67;11.50;;;;;;;;;;6243612;23;20008;-64
2020/12/12 03:26:44;;;;;;;21.05;10.40;;;10.60;65.00;;;;;;6243638;23;20023;-65
2020/12/12 03:29:11;;;;;;;22.33;11.23;;;;;;;;;;6243046;23;20145;-66
2020/12/12 03:31:37;;;;;;;20.52;11.05;;;;;;;;;;6243903;23;20050;-66
2020/12/12 03:34:03;;;;;;;19.27;10.77;;;;;;;;;;6243548;23;20027;-64
2020/12/12 03:36:29;;;;;;;24.08;11.85;;;;;;;;;;6243816;23;20091;-66
2020/12/12 03:38:56;;;;;;;22.88;11.07;;;;;;;;;;6243839;23;20012;-65
2020/12/12 03:41:22;;;;;;;22.95;10.40;;;;;;;;;;6243753;23;20015;-65
2020/12/12 03:43:48;;;;;;;23.98;11.15;;;;;;;;;;6243267;23;20011;-65
2020/12/12 03:46:14;;;;;;;20.52;10.90;;;;;;;;;;6243756;23;20004;-64
2020/12/12 03:48:41;;;;;;;21.98;10.80;;;;;;;;;;6243702;23;20050;-65
2020/12/12 03:51:08;;;;;;;;;;;9.80;68.40;;;;;;6217452;23;20015;-65
2020/12/12 03:53:34;;;;;;;;;;;10.20;68.60;;;;;;6243789;23;20307;-65
2020/12/12 03:56:00;;;;;;;26.83;10.77;;;;;;;;;;6243684;23;19968;-66
2020/12/12 03:58:26;;;;;;;23.05;11.82;;;;;;;;;;6243293;23;20009;-65
2020/12/12 04:00:53;;;;;;;22.55;11.57;;;;;;;;;;6243464;23;20027;-65
2020/12/12 04:03:19;;;;;;;27.25;11.40;;;;;;;;;;6216684;23;20008;-65
2020/12/12 04:05:45;;;;;;;19.70;10.90;;;;;;;;;;6243439;23;20336;-65
2020/12/12 04:08:12;;;;;;;21.98;11.95;;;;;;;;;;6216968;23;20031;-64
2020/12/12 04:10:38;;;;;;;22.90;11.80;;;;;;;;;;6217092;23;20030;-65
2020/12/12 04:13:04;;;;;;;25.63;12.00;;;;;;;;;;6243563;23;20016;-64
2020/12/12 04:15:31;;;;;;;23.20;11.48;;;;;;;;;;6216771;23;20012;-65
2020/12/12 04:17:57;;;;;;;26.52;12.82;;;;;;;;;;6244297;23;20431;-65
2020/12/12 04:20:23;;;;;;;33.13;12.10;;;;;;;;;;6243192;23;20012;-64
2020/12/12 04:22:49;;;;;;;24.60;11.60;;;;;;;;;;6243225;23;20389;-66
2020/12/12 04:25:16;;;;;;;25.80;12.30;;;;;;;;;;6243809;23;20019;-65
2020/12/12 04:27:43;;;;;;;26.60;11.20;;;10.70;65.60;;;;;;6243349;23;20012;-65
2020/12/12 04:30:09;;;;;;;25.98;12.48;;;;;;;;;;6243375;23;20016;-64
2020/12/12 04:32:35;;;;;;;26.38;11.63;;;;;;;;;;6243511;23;20012;-66
2020/12/12 04:35:01;;;;;;;25.60;13.00;;;;;;;;;;6243153;23;20012;-65
2020/12/12 04:37:28;;;;;;;26.27;11.75;;;;;;;;;;6244579;23;20019;-65
2020/12/12 04:39:54;;;;;;;35.05;12.82;;;;;;;;;;6245254;23;20012;-65
2020/12/12 04:42:20;;;;;;;30.10;12.50;;;;;;;;;;6218426;23;20008;-66
2020/12/12 04:44:47;;;;;;;26.85;12.43;;;11.50;64.10;;;;;;6244977;23;20019;-66
2020/12/12 04:47:13;;;;;;;29.83;13.18;;;;;;;;;;6218601;23;20008;-65
2020/12/12 04:49:40;;;;;;;35.53;12.95;;;11.30;64.10;;;;;;6245618;23;20047;-66
2020/12/12 04:52:07;;;;;;;33.38;13.80;;;;;;;;;;6245057;23;20015;-65
2020/12/12 04:54:34;;;;;;;43.35;13.73;;;11.40;64.50;;;;;;6244743;23;20444;-65
2020/12/12 04:57:04;;;;;;;27.27;12.95;;;11.40;64.20;;;;;;6245215;23;20012;-65
2020/12/12 04:59:32;;;;;;;43.20;14.32;;;11.60;64.10;;;;;;6244495;23;20039;-64
2020/12/12 05:01:59;;;;;;;39.22;14.38;;;11.50;63.80;;;;;;6245156;23;20066;-65
2020/12/12 05:04:26;;;;;;;36.15;14.05;;;;;;;;;;6244947;23;20008;-65
2020/12/12 05:06:52;;;;;;;28.95;12.40;;;;;;;;;;6244918;23;20034;-65
2020/12/12 05:09:19;;;;;;;30.02;13.48;;;;;;;;;;6244960;23;20062;-66
2020/12/12 05:11:48;;;;;;;38.20;13.15;;;11.60;64.00;;;;;;6244812;23;20012;-65
2020/12/12 05:14:17;;;;;;;26.40;12.82;;;11.50;64.30;;;;;;6244865;23;20012;-64
2020/12/12 05:16:46;;;;;;;38.08;13.60;;;11.60;64.00;;;;;;6244992;23;20008;-64
2020/12/12 05:19:15;;;;;;;35.55;13.57;;;11.60;64.10;;;;;;6244429;23;20015;-65
2020/12/12 05:21:48;;;;;;;30.50;14.15;;;11.60;64.00;;;;;;6245071;23;20010;-65
2020/12/12 05:24:15;;;;;;;34.15;12.75;;;;;;;;;;6244736;23;20318;-64
2020/12/12 05:26:44;;;;;;;34.58;14.43;;;11.50;63.80;;;;;;6245066;23;20004;-65
2020/12/12 05:29:13;;;;;;;32.10;13.23;;;11.50;64.30;;;;;;6244529;23;20004;-64
2020/12/12 05:31:39;;;;;;;34.03;14.50;;;;;;;;;;6245191;23;20032;-65
2020/12/12 05:34:11;;;;;;;29.08;13.27;;;11.70;63.80;;;;;;6244216;23;20492;-63
2020/12/12 05:36:38;;;;;;;31.80;14.48;;;11.70;63.60;;;;;;6244453;23;20019;-64
2020/12/12 05:39:06;;;;;;;38.00;14.43;;;11.70;64.10;;;;;;6244754;23;20004;-64
2020/12/12 05:41:33;;;;;;;37.72;14.13;;;11.70;64.00;;;;;;6244634;23;20038;-64
2020/12/12 05:43:59;;;;;;;29.48;13.90;;;;;;;;;;6244422;23;20046;-64
2020/12/12 05:46:26;;;;;;;44.22;14.05;;;;;;;;;;6244733;23;20123;-64
2020/12/12 05:48:52;;;;;;;32.22;15.30;;;;;;;;;;6244112;23;20008;-65
2020/12/12 05:51:19;;;;;;;37.58;14.18;;;11.80;63.80;;;;;;6244655;23;20008;-65
2020/12/12 05:53:47;;;;;;;34.35;14.23;;;11.80;63.60;;;;;;6244213;23;20012;-64
2020/12/12 05:56:14;;;;;;;33.25;13.30;;;;;;;;;;6244399;23;20018;-64
2020/12/12 05:58:45;;;;;;;44.65;14.10;;;11.90;63.30;;;;;;6244055;23;20496;-64
2020/12/12 06:01:17;;;;;;;28.95;13.25;;;11.90;63.40;;;;;;6243982;23;20138;-64
2020/12/12 06:04:03;;;;;;;38.72;13.93;;;12.00;63.60;;;;;;6244087;23;20065;-65
2020/12/12 06:06:29;;;;;;;32.47;13.82;;;;;;;;;;6217257;23;20024;-65
2020/12/12 06:09:08;;;;;;;41.67;14.57;;;11.70;63.50;;;;;;6244458;23;20016;-65
2020/12/12 06:11:39;;;;;;;37.60;13.82;;;11.90;63.80;;;;;;6244543;23;20004;-65
2020/12/12 06:14:05;;;;;;;33.33;14.40;;;;;;;;;;6243869;23;20443;-64
2020/12/12 06:16:35;;;;;;;39.28;15.23;;;11.90;63.80;;;;;;6244591;23;20016;-70
2020/12/12 06:19:14;;;;;;;46.58;13.13;;;11.90;63.70;;;;;;6219710;23;20016;-64
2020/12/12 06:21:42;;;;;;;40.58;13.35;;;11.90;63.80;;;;;;6244837;23;20008;-65
2020/12/12 06:24:11;;;;;;;41.08;15.65;;;12.00;63.70;;;;;;6244052;23;20004;-65
2020/12/12 06:27:04;;;;;;;43.78;15.18;;;12.00;63.80;;;;;;6244155;23;20012;-65
2020/12/12 06:29:38;;;;;;;41.53;14.50;;;12.00;63.80;;;;;;6243547;23;20008;-65
2020/12/12 06:32:04;;;;;;;37.33;15.32;;;12.00;63.70;;;;;;6244175;23;20012;-65
2020/12/12 06:34:47;;;;;;;;;;;12.00;64.10;;;;;;6217536;23;20008;-64
2020/12/12 06:37:34;;;;;;;35.63;13.13;;;12.10;63.50;;;;;;6244278;23;19908;-65
2020/12/12 06:40:03;;;;;;;58.55;15.30;;;12.20;63.50;;;;;;6243764;23;20015;-67
2020/12/12 06:42:35;;;;;;;42.90;14.77;;;12.20;63.50;;;;;;6243530;23;20504;-64
2020/12/12 06:45:04;;;;;;;35.92;14.43;;;12.20;63.60;;;;;;6243394;23;20318;-63
2020/12/12 06:47:39;;;;;;;40.50;15.35;;;12.30;63.70;;;;;;6243542;23;20004;-65
2020/12/12 06:50:09;;;;;;;48.95;15.73;;;12.30;63.50;;;;;;6243358;23;20593;-64
2020/12/12 06:52:36;;;;;;;57.65;16.40;;;;;;;;;;6243716;23;20008;-65
2020/12/12 06:55:07;;;;;;;42.97;16.00;;;12.30;63.50;;;;;;6243001;23;20114;-64
2020/12/12 06:57:44;;;;;;;56.78;15.73;;;;;;;;;;6243653;23;20066;-64
2020/12/12 07:00:25;;;;;;;49.97;15.52;;;12.30;63.80;;;;;;6243575;23;20090;-64
2020/12/12 07:02:59;;;;;;;47.63;16.58;;;12.30;63.70;;;;;;6243627;23;20008;-64
2020/12/12 07:05:29;;;;;;;58.88;17.27;;;12.30;63.60;;;;;;6243038;23;20361;-64
2020/12/12 07:08:06;;;;;;;51.85;15.07;;;12.40;63.50;;;;;;6243525;23;20008;-65
2020/12/12 07:10:36;;;;;;;;;;;12.50;64.00;;;;;;6243751;23;20004;-64
2020/12/12 07:13:03;;;;;;;43.72;13.35;;;12.30;63.50;;;;;;6216851;23;20444;-65
2020/12/12 07:15:32;;;;;;;40.67;15.13;;;12.40;63.70;;;;;;6216442;23;20012;-65
2020/12/12 07:18:03;;;;;;;41.55;16.35;;;12.30;63.70;;;;;;6243347;23;20008;-64
2020/12/12 07:20:37;;;;;;;50.63;14.82;;;12.20;64.00;;;;;;6243273;23;20012;-64
2020/12/12 07:23:04;;;;;;;59.75;16.65;;;12.20;64.30;;;;;;6243389;23;20008;-65
2020/12/12 07:25:31;;;;;;;69.30;17.23;;;12.10;64.60;;;;;;6243003;23;20015;-64
2020/12/12 07:27:57;;;;;;;46.00;16.23;;;;;;;;;;6242928;23;20452;-64
2020/12/12 07:30:23;;;;;;;62.75;15.77;;;;;;;;;;6243132;23;20019;-63
2020/12/12 07:32:50;;;;;;;54.70;15.60;;;;;;;;;;6243054;23;20019;-65
2020/12/12 07:35:16;;;;;;;65.72;18.27;;;;;;;;;;6242691;23;20317;-65
2020/12/12 07:37:42;;;;;;;54.65;17.58;;;;;;;;;;6243214;23;20322;-64
2020/12/12 07:40:09;;;;;;;57.25;17.05;;;;;;;;;;6242840;23;20004;-67
2020/12/12 07:42:35;;;;;;;67.00;16.50;;;12.60;63.70;;;;;;6243148;23;20047;-64
2020/12/12 07:45:22;;;;;;;102.32;20.13;;;12.60;63.50;;;;;;6214956;23;20015;-67
2020/12/12 07:47:48;;;;;;;;;;;12.60;64.00;;;;;;6216269;23;20008;-64
2020/12/12 07:50:14;;;;;;;73.80;15.55;;;;;;;;;;6242978;23;19903;-67
2020/12/12 07:52:41;;;;;;;76.85;18.02;;;;;;;;;;6243081;23;20329;-66
2020/12/12 07:55:11;;;;;;;51.10;17.05;;;;;;;;;;6215914;23;20271;-64
2020/12/12 07:57:43;;;;;;;71.95;17.70;;;;;;;;;;6238639;23;20008;-65
2020/12/12 08:00:13;;;;;;;77.35;18.23;;;12.70;63.60;;;;;;6242322;23;20055;-66
2020/12/12 08:02:40;;;;;;;64.90;17.98;;;;;;;;;;6242799;23;20111;-67
2020/12/12 08:05:07;;;;;;;58.90;17.02;;;12.60;63.60;;;;;;6241504;23;20336;-67
2020/12/12 08:07:34;;;;;;;98.93;18.58;;;12.70;63.70;;;;;;6242191;23;20091;-65
2020/12/12 08:10:03;;;;;;;46.25;16.25;;;12.70;63.40;;;;;;6242426;23;20011;-66
2020/12/12 08:12:34;;;;;;;58.33;16.08;;;12.80;63.50;;;;;;6243107;23;20004;-63
2020/12/12 08:15:06;;;;;;;56.90;17.10;;;12.70;63.40;;;;;;6217668;23;20023;-65
2020/12/12 08:17:33;;;;;;;59.75;16.02;;;;;;;;;;6244296;23;20020;-65
2020/12/12 08:20:00;;;;;;;46.70;15.52;;;;;;;;;;6216543;23;20478;-64
2020/12/12 08:22:26;;;;;;;60.10;17.42;;;;;;;;;;6244102;23;20067;-66
2020/12/12 08:24:52;;;;;;;66.50;18.55;;;;;;;;;;6243970;23;20020;-66
2020/12/12 08:27:26;;;;;;;54.60;16.58;;;12.70;63.90;;;;;;6216844;23;20019;-68
2020/12/12 08:29:57;;;;;;;75.63;20.08;;;12.80;63.70;;;;;;6243644;23;20318;-66
2020/12/12 08:32:31;;;;;;;69.65;19.02;;;12.90;63.60;;;;;;6243462;23;20015;-65
2020/12/12 08:35:24;;;;;;;54.47;17.05;;;12.90;63.40;;;;;;6191220;23;20082;-67
2020/12/12 08:37:56;;;;;;;66.13;17.60;;;12.80;63.20;;;;;;6243774;23;20370;-67
2020/12/12 08:40:26;;;;;;;63.88;17.95;;;12.90;63.30;;;;;;6242004;23;20011;-66
2020/12/12 08:43:06;;;;;;;51.53;16.30;;;12.90;63.30;;;;;;6243734;23;20190;-66
2020/12/12 08:45:33;;;;;;;46.00;16.30;;;12.90;63.40;;;;;;6244085;23;20448;-67
2020/12/12 08:48:11;;;;;;;56.78;18.48;;;12.90;63.30;;;;;;6243879;23;20095;-65
2020/12/12 08:50:56;;;;;;;63.83;17.98;;;12.90;63.30;;;;;;6242826;23;20115;-64
2020/12/12 08:53:22;;;;;;;53.38;17.60;;;;;;;;;;6243272;23;20012;-63
2020/12/12 08:56:03;;;;;;;47.08;15.95;;;12.90;63.50;;;;;;6243119;23;20036;-65
2020/12/12 08:58:51;;;;;;;59.30;16.63;;;12.90;63.50;;;;;;6243711;23;20012;-65
2020/12/12 09:01:23;;;;;;;52.35;16.90;;;12.90;63.60;;;;;;6243260;23;20022;-65
2020/12/12 09:03:49;;;;;;;46.30;17.25;;;;;;;;;;6216593;23;20089;-65
2020/12/12 09:06:15;;;;;;;50.22;16.77;;;;;;;;;;6243821;23;20103;-65
2020/12/12 09:08:41;;;;;;;44.20;16.35;;;;;;;;;;6217215;23;20012;-66
2020/12/12 09:11:29;;;;;;;43.13;16.23;;;12.90;63.60;;;;;;6243939;23;20004;-65
2020/12/12 09:13:55;;;;;;;45.45;15.65;;;;;;;;;;6243824;23;20008;-65
2020/12/12 09:16:21;;;;;;;49.97;16.55;;;;;;;;;;6243641;23;20468;-66
2020/12/12 09:18:48;;;;;;;59.15;18.48;;;13.00;63.80;;;;;;6243802;23;20008;-66
2020/12/12 09:21:14;;;;;;;42.20;16.40;;;;;;;;;;6243652;23;20016;-66
2020/12/12 09:23:41;;;;;;;38.35;15.30;;;13.00;63.70;;;;;;6243264;23;20294;-65
2020/12/12 09:26:07;;;;;;;34.38;16.10;;;13.10;64.00;;;;;;6242899;23;20027;-64
2020/12/12 09:28:34;;;;;;;;;;;13.00;64.40;;;;;;6243861;23;20057;-65
2020/12/12 09:31:00;;;;;;;41.20;15.00;;;;;;;;;;6216581;23;19911;-65
2020/12/12 09:33:26;;;;;;;33.25;15.32;;;;;;;;;;6243135;23;20012;-65
2020/12/12 09:35:52;;;;;;;44.78;15.77;;;;;;;;;;6243091;23;20011;-64
2020/12/12 09:38:19;;;;;;;50.80;17.65;;;;;;;;;;6243549;23;20086;-65
2020/12/12 09:40:52;;;;;;;43.75;15.35;;;;;;;;;;6243719;23;20066;-65
2020/12/12 09:43:18;;;;;;;48.15;16.58;;;13.30;63.40;;;;;;6243166;23;20290;-65
2020/12/12 09:45:45;;;;;;;;;;;13.20;63.80;;;;;;6244034;23;20012;-65
2020/12/12 09:48:12;;;;;;;31.77;15.63;;;;;;;;;;6243825;23;19994;-66
2020/12/12 09:50:38;;;;;;;38.30;15.35;;;;;;;;;;6243439;23;20483;-65
2020/12/12 09:53:05;;;;;;;40.83;16.48;;;13.40;63.60;;;;;;6216751;23;20008;-65
2020/12/12 09:55:33;;;;;;;45.95;18.08;;;13.40;63.70;;;;;;6242797;23;20008;-67
2020/12/12 09:57:59;;;;;;;45.67;16.60;;;;;;;;;;6215600;23;20118;-64
2020/12/12 10:00:26;;;;;;;47.83;16.90;;;;;;;;;;6243181;23;20078;-66
2020/12/12 10:02:52;;;;;;;48.17;16.75;;;;;;;;;;6215912;23;20019;-66
2020/12/12 10:05:19;;;;;;;52.70;17.52;;;;;;;;;;6242959;23;20011;-65
2020/12/12 10:07:45;;;;;;;46.72;16.30;;;;;;;;;;6243193;23;20004;-65
2020/12/12 10:10:12;;;;;;;44.08;17.27;;;;;;;;;;6243036;23;20007;-66
2020/12/12 10:12:38;;;;;;;46.65;17.00;;;;;;;;;;6243555;23;20142;-65
2020/12/12 10:15:04;;;;;;;47.20;17.98;;;;;;;;;;6216291;23;20008;-66
2020/12/12 10:17:31;;;;;;;41.90;15.35;;;13.60;63.60;;;;;;6243685;23;20016;-66
2020/12/12 10:19:57;;;;;;;50.05;17.17;;;13.50;63.30;;;;;;6243529;23;20062;-66
2020/12/12 10:22:24;;;;;;;47.88;17.98;;;;;;;;;;6216344;23;20040;-67
2020/12/12 10:24:51;;;;;;;53.22;18.25;;;;;;;;;;6242808;23;20008;-66
2020/12/12 10:27:17;;;;;;;51.75;18.67;;;;;;;;;;6242568;23;20042;-66
2020/12/12 10:29:43;;;;;;;61.92;18.38;;;;;;;;;;6242680;23;20000;-66
2020/12/12 10:32:10;;;;;;;51.25;18.40;;;;;;;;;;6243032;23;20007;-65
2020/12/12 10:34:36;;;;;;;63.35;19.15;;;;;;;;;;6242410;23;20090;-66
2020/12/12 10:37:02;;;;;;;44.80;18.08;;;;;;;;;;6215767;23;20008;-66
2020/12/12 10:39:35;;;;;;;56.53;18.73;;;;;;;;;;6242506;23;20031;-66
2020/12/12 10:42:01;;;;;;;48.20;17.88;;;;;;;;;;6215746;23;20090;-66
2020/12/12 10:44:27;;;;;;;65.10;17.98;;;;;;;;;;6215217;23;20012;-67
2020/12/12 10:46:54;;;;;;;53.30;19.88;;;;;;;;;;6242567;23;20135;-66
2020/12/12 10:49:20;;;;;;;46.90;18.75;;;;;;;;;;6242654;23;20451;-66
2020/12/12 10:51:52;;;;;;;50.90;19.17;;;;;;;;;;6243148;23;20015;-65
2020/12/12 10:54:21;;;;;;;54.28;19.00;;;14.00;63.50;;;;;;6242161;23;20023;-66
2020/12/12 10:56:47;;;;;;;61.85;19.20;;;13.80;63.60;;;;;;6242519;23;20104;-65
2020/12/12 10:59:14;;;;;;;62.22;19.80;;;;;;;;;;6242559;23;20437;-67
2020/12/12 11:01:40;;;;;;;59.47;19.95;;;;;;;;;;6215860;23;20271;-67
2020/12/12 11:04:06;;;;;;;54.95;18.88;;;;;;;;;;6215068;23;20012;-66
2020/12/12 11:06:33;;;;;;;60.78;20.42;;;;;;;;;;6215096;23;20008;-66
2020/12/12 11:09:00;;;;;;;65.05;20.83;;;13.90;63.60;;;;;;6214690;23;20004;-65
2020/12/12 11:11:26;;;;;;;58.25;20.60;;;;;;;;;;6242784;23;20012;-65
2020/12/12 11:14:05;;;;;;;64.07;20.17;;;;;;;;;;6242874;23;20340;-64
2020/12/12 11:16:31;;;;;;;72.45;20.40;;;;;;;;;;6242514;23;20119;-66
2020/12/12 11:18:57;;;;;;;77.68;23.23;;;;;;;;;;6214633;23;20026;-66
2020/12/12 11:21:24;;;;;;;65.45;21.52;;;;;;;;;;6214465;23;20496;-64
2020/12/12 11:23:50;;;;;;;79.97;22.27;;;;;;;;;;6214799;23;20000;-65
2020/12/12 11:26:17;;;;;;;108.63;23.00;;;;;;;;;;6189593;23;20030;-64
2020/12/12 11:28:45;;;;;;;69.70;19.85;;;14.00;64.60;;;;;;6241615;23;20004;-65
2020/12/12 11:31:15;;;;;;;92.78;23.80;;;14.00;64.70;;;;;;6214228;23;20040;-65
2020/12/12 11:33:43;;;;;;;71.63;20.02;;;;;;;;;;6242158;23;20448;-67
2020/12/12 11:48:39;;;;;;;89.07;24.50;;;;;;;;;;6244542;23;20019;-65
2020/12/12 11:51:05;;;;;;;97.45;24.30;;;;;;;;;;6244656;23;20063;-66
2020/12/12 11:53:32;;;;;;;89.00;23.08;;;;;;;;;;6192666;23;20050;-66
2020/12/12 11:55:58;;;;;;;96.95;24.27;;;;;;;;;;6244533;23;20015;-66
2020/12/12 11:58:24;;;;;;;96.22;22.65;;;;;;;;;;6244010;23;20015;-66
2020/12/12 12:00:50;;;;;;;69.28;21.70;;;;;;;;;;6243563;23;20414;-67
2020/12/12 12:03:17;;;;;;;69.78;20.70;;;;;;;;;;6192342;23;20012;-65
2020/12/12 12:05:44;;;;;;;68.18;21.17;;;;;;;;;;6244344;23;20031;-66
2020/12/12 12:11:17;;;;;;;80.57;22.88;;;;;;;;;;6216518;23;20012;-65
2020/12/12 12:13:44;;;;;;;83.22;24.08;;;;;;;;;;6217316;23;20012;-66
2020/12/12 12:16:17;;;;;;;72.82;22.05;;;14.10;64.90;;;;;;6243909;23;20023;-67
2020/12/12 12:18:43;;;;;;;71.43;22.20;;;;;;;;;;6216451;23;20428;-67
2020/12/12 12:21:10;;;;;;;80.53;23.55;;;;;;;;;;6244164;23;20048;-67
2020/12/12 12:23:36;;;;;;;73.40;22.35;;;;;;;;;;6243875;23;20027;-66
2020/12/12 12:26:02;;;;;;;81.63;20.38;;;;;;;;;;6243500;23;20010;-67
2020/12/12 12:28:29;;;;;;;84.15;23.15;;;;;;;;;;6216960;23;20012;-66
2020/12/12 12:30:55;;;;;;;81.65;22.88;;;;;;;;;;6244096;23;20019;-67
2020/12/12 12:33:21;;;;;;;80.78;22.83;;;;;;;;;;6216748;23;20421;-64
2020/12/12 12:35:47;;;;;;;88.28;24.25;;;;;;;;;;6243907;23;20015;-66
2020/12/12 12:38:14;;;;;;;86.50;22.85;;;;;;;;;;6217096;23;20016;-67
2020/12/12 12:40:40;;;;;;;80.35;24.13;;;;;;;;;;6243057;23;20451;-67
2020/12/12 12:43:06;;;;;;;78.80;23.50;;;;;;;;;;6216469;23;20008;-67
2020/12/12 12:45:33;;;;;;;84.93;24.50;;;;;;;;;;6217015;23;20383;-66
2020/12/12 12:47:59;;;;;;;90.22;23.05;;;;;;;;;;6243875;23;20000;-65
2020/12/12 12:50:36;;;;;;;91.00;25.30;;;;;;;;;;6243122;23;20091;-67
2020/12/12 12:53:07;;;;;;;78.60;23.33;;;14.70;63.90;;;;;;6243341;23;20161;-66
2020/12/12 12:55:34;;;;;;;71.40;23.98;;;;;;;;;;6242883;23;20091;-68
2020/12/12 12:58:01;;;;;;;91.40;23.05;;;;;;;;;;6243093;23;20012;-67
2020/12/12 13:00:28;;;;;;;76.18;24.48;;;14.80;63.90;;;;;;6241173;23;20043;-66
2020/12/12 13:02:54;;;;;;;88.57;24.52;;;;;;;;;;6240776;23;20035;-66
2020/12/12 13:05:21;;;;;;;76.90;23.90;;;14.60;64.30;;;;;;6240051;23;20460;-66
2020/12/12 13:07:48;;;;;;;76.88;25.13;;;;;;;;;;6240715;23;20076;-67
2020/12/12 13:10:14;;;;;;;74.45;22.50;;;;;;;;;;6240644;23;20062;-66
2020/12/12 13:12:41;;;;;;;65.90;25.30;;;;;;;;;;6240554;23;20452;-66
2020/12/12 13:15:07;;;;;;;91.72;25.15;;;;;;;;;;6241501;23;20019;-66
2020/12/12 13:17:35;;;;;;;77.18;24.63;;;;;;;;;;6240373;23;20425;-67
2020/12/12 13:22:27;;;;;;;90.72;25.38;;;;;;;;;;6213501;23;20008;-66
2020/12/12 13:24:53;;;;;;;90.13;25.90;;;;;;;;;;6240178;23;20394;-67
2020/12/12 13:27:20;;;;;;;74.63;24.25;;;;;;;;;;6241648;23;20012;-67
2020/12/12 13:32:31;;;;;;;111.60;29.45;;;;;;;;;;6240603;23;20023;-69
2020/12/12 13:34:57;;;;;;;98.43;27.63;;;;;;;;;;6240302;23;20044;-66
2020/12/12 13:37:23;;;;;;;98.95;25.25;;;;;;;;;;6240137;23;20016;-67
2020/12/12 13:39:51;;;;;;;87.07;23.85;;;;;;;;;;6240294;23;20049;-68
2020/12/12 13:42:18;;;;;;;89.38;25.38;;;14.70;64.00;;;;;;6241026;23;20087;-65
2020/12/12 13:44:44;;;;;;;100.70;25.40;;;14.70;64.10;;;;;;6240683;23;20028;-68
2020/12/12 13:47:11;;;;;;;84.10;26.50;;;14.50;64.40;;;;;;6240580;23;20012;-66
2020/12/12 13:49:38;;;;;;;95.05;25.50;;;;;;;;;;6238814;23;20019;-67
2020/12/12 13:52:04;;;;;;;97.55;27.10;;;14.80;63.80;;;;;;6211646;23;20012;-68
2020/12/12 13:54:31;;;;;;;84.45;25.27;;;;;;;;;;6239413;23;20111;-66
2020/12/12 13:56:57;;;;;;;80.85;26.85;;;;;;;;;;6239260;23;20008;-66
2020/12/12 13:59:23;;;;;;;72.00;23.58;;;;;;;;;;6238798;23;20016;-67
2020/12/12 14:01:53;;;;;;;100.85;27.05;;;14.80;63.40;;;;;;6238152;23;20094;-67
2020/12/12 14:04:20;;;;;;;96.22;27.23;;;15.00;63.40;;;;;;6210760;23;20145;-67